Time;durP1;ratioP1;P1;durP2;ratioP2;P2;SDS_P1;SDS_P2;PMS_P1;PMS_P2;Temp;Humidity;BMP_temperature;BMP_pressure;BME280_temperature;BME280_humidity;BME280_pressure;Samples;Min_cycle;Max_cycle;Signal;HPM_P1;HPM_P2
2022/01/17 00:02:00;;;;;;;0.00;0.00;;;5.40;99.90;;;;;;5022112;28;20664;-71
2022/01/17 00:04:25;;;;;;;0.00;0.00;;;5.40;99.90;;;;;;5022140;28;20041;-71
2022/01/17 00:06:51;;;;;;;0.00;0.00;;;5.50;99.90;;;;;;5021875;28;20050;-71
2022/01/17 00:09:18;;;;;;;0.00;0.00;;;5.50;99.90;;;;;;5020707;28;20635;-72
2022/01/17 00:11:47;;;;;;;0.00;0.00;;;5.50;99.90;;;;;;5021508;28;20492;-72
2022/01/17 00:14:17;;;;;;;0.00;0.00;;;5.50;99.90;;;;;;5021989;28;20110;-72
2022/01/17 00:17:04;;;;;;;0.00;0.00;;;5.50;99.90;;;;;;5021189;28;20045;-72
2022/01/17 00:19:38;;;;;;;0.00;0.00;;;5.50;99.90;;;;;;5003820;28;20045;-72
2022/01/17 00:22:04;;;;;;;0.00;0.00;;;5.50;99.90;;;;;;5021157;28;20069;-71
2022/01/17 00:24:30;;;;;;;0.00;0.00;;;5.50;99.90;;;;;;5021266;28;20050;-72
2022/01/17 00:26:56;;;;;;;0.00;0.00;;;5.50;99.90;;;;;;5021540;28;20126;-71
2022/01/17 00:29:21;;;;;;;0.00;0.00;;;5.50;99.90;;;;;;5032569;28;20037;-72
2022/01/17 00:31:47;;;;;;;0.28;0.22;;;5.50;99.90;;;;;;5021077;28;20099;-72
2022/01/17 00:34:13;;;;;;;0.00;0.00;;;6.80;99.90;;;;;;5003702;28;20034;-71
2022/01/17 00:36:39;;;;;;;0.00;0.00;;;5.40;99.90;;;;;;5021689;28;20080;-71
2022/01/17 00:39:04;;;;;;;0.00;0.00;;;5.30;99.90;;;;;;5020762;28;20041;-72
2022/01/17 00:41:30;;;;;;;0.00;0.00;;;6.60;99.90;;;;;;5020761;28;20120;-72
2022/01/17 00:43:55;;;;;;;0.00;0.00;;;5.30;99.90;;;;;;5021299;28;20049;-72
2022/01/17 00:46:21;;;;;;;0.00;0.00;;;5.30;99.90;;;;;;5020755;28;20038;-71
2022/01/17 00:48:47;;;;;;;0.00;0.00;;;5.30;99.90;;;;;;5020964;28;20049;-71
2022/01/17 00:51:13;;;;;;;0.00;0.00;;;5.30;99.90;;;;;;5020702;28;20088;-73
2022/01/17 00:53:40;;;;;;;0.00;0.00;;;5.30;99.90;;;;;;5021515;28;20519;-72
2022/01/17 00:56:06;;;;;;;0.00;0.00;;;5.30;99.90;;;;;;5020878;28;20045;-71
2022/01/17 00:58:33;;;;;;;0.00;0.00;;;5.40;99.90;;;;;;5021098;28;20113;-72
2022/01/17 01:00:59;;;;;;;0.00;0.00;;;5.30;99.90;;;;;;5020051;28;20113;-72
2022/01/17 01:03:25;;;;;;;0.95;0.55;;;5.40;99.90;;;;;;5021219;28;20053;-72
2022/01/17 01:05:51;;;;;;;0.00;0.00;;;5.40;99.90;;;;;;5002671;28;20060;-73
2022/01/17 01:08:16;;;;;;;0.00;0.00;;;5.30;99.90;;;;;;5020806;28;20100;-72
2022/01/17 01:10:42;;;;;;;0.00;0.00;;;5.30;99.90;;;;;;5019357;28;20057;-72
2022/01/17 01:13:09;;;;;;;0.00;0.00;;;5.30;99.90;;;;;;5020814;28;20045;-72
2022/01/17 01:18:17;;;;;;;0.00;0.00;;;5.60;99.90;;;;;;5020476;28;20056;-71
2022/01/17 01:28:42;;;;;;;0.00;0.00;;;5.40;99.90;;;;;;5029054;28;20102;-72
2022/01/17 01:31:16;;;;;;;0.00;0.00;;;5.40;99.90;;;;;;5022292;28;20458;-72
2022/01/17 01:33:49;;;;;;;0.00;0.00;;;5.40;99.90;;;;;;5020178;28;20069;-71
2022/01/17 01:36:21;;;;;;;0.00;0.00;;;5.40;99.90;;;;;;5002587;28;20124;-72
2022/01/17 01:38:47;;;;;;;0.00;0.00;;;5.40;99.90;;;;;;5019713;28;20064;-72
2022/01/17 01:41:12;;;;;;;0.00;0.00;;;5.30;99.90;;;;;;5020024;28;20041;-72
2022/01/17 01:43:38;;;;;;;0.00;0.00;;;5.30;99.90;;;;;;5020864;28;20063;-72
2022/01/17 01:46:05;;;;;;;0.00;0.00;;;5.30;99.90;;;;;;5019531;28;20065;-72
2022/01/17 01:48:33;;;;;;;0.00;0.00;;;6.80;99.90;;;;;;5020008;28;20053;-72
2022/01/17 01:50:59;;;;;;;0.00;0.00;;;6.70;99.90;;;;;;5002559;28;20393;-73
2022/01/17 01:53:25;;;;;;;0.00;0.00;;;5.50;99.90;;;;;;5019929;28;20049;-72
2022/01/17 01:55:53;;;;;;;0.00;0.00;;;5.30;99.90;;;;;;5018103;28;20053;-71
2022/01/17 01:58:21;;;;;;;0.00;0.00;;;5.30;99.90;;;;;;5019204;28;20057;-71
2022/01/17 02:00:47;;;;;;;0.00;0.00;;;5.20;99.90;;;;;;5020045;28;20068;-72
2022/01/17 02:03:13;;;;;;;0.00;0.00;;;5.30;99.90;;;;;;5028675;22;20065;-71
2022/01/17 02:05:38;;;;;;;0.00;0.00;;;5.20;99.90;;;;;;4995503;28;20058;-72
2022/01/17 02:08:05;;;;;;;0.00;0.00;;;6.60;99.90;;;;;;4997518;28;20107;-72
2022/01/17 02:10:31;;;;;;;0.00;0.00;;;5.10;99.90;;;;;;5011010;28;20057;-71
2022/01/17 02:12:57;;;;;;;0.00;0.00;;;5.10;99.90;;;;;;5019390;28;20060;-72
2022/01/17 02:15:23;;;;;;;0.00;0.00;;;5.10;99.90;;;;;;5019917;28;20443;-70
2022/01/17 02:17:56;;;;;;;0.00;0.00;;;5.40;99.90;;;;;;5019508;28;20056;-72
2022/01/17 02:20:35;;;;;;;0.00;0.00;;;5.10;99.90;;;;;;5002378;28;20045;-71
2022/01/17 02:23:04;;;;;;;0.00;0.00;;;5.00;99.90;;;;;;5019613;28;20451;-71
2022/01/17 02:25:31;;;;;;;0.00;0.00;;;5.00;99.90;;;;;;5001666;28;20056;-72
2022/01/17 02:27:57;;;;;;;0.00;0.00;;;5.00;99.90;;;;;;5004426;28;20053;-71
2022/01/17 02:30:23;;;;;;;0.00;0.00;;;5.00;99.90;;;;;;4979356;28;20470;-71
2022/01/17 02:32:50;;;;;;;0.00;0.00;;;5.00;99.90;;;;;;4980014;28;20062;-71
2022/01/17 02:35:18;;;;;;;0.00;0.00;;;5.00;99.90;;;;;;4963292;28;20058;-71
2022/01/17 02:37:44;;;;;;;0.00;0.00;;;5.00;99.90;;;;;;4979521;28;20663;-72
2022/01/17 02:40:12;;;;;;;0.00;0.00;;;5.00;99.90;;;;;;4980409;28;20537;-72
2022/01/17 02:42:38;;;;;;;0.00;0.00;;;5.00;99.90;;;;;;4963615;28;20489;-71
2022/01/17 02:45:12;;;;;;;0.00;0.00;;;4.90;99.90;;;;;;4980166;28;20056;-72
2022/01/17 02:47:39;;;;;;;0.00;0.00;;;5.00;99.90;;;;;;4980775;28;20831;-72
2022/01/17 02:50:05;;;;;;;0.00;0.00;;;4.90;99.90;;;;;;4980550;28;20413;-71
2022/01/17 02:52:31;;;;;;;0.00;0.00;;;4.90;99.90;;;;;;4963191;28;20480;-72
2022/01/17 02:54:56;;;;;;;0.00;0.00;;;4.80;99.90;;;;;;4979905;28;20092;-74
2022/01/17 02:57:24;;;;;;;0.00;0.00;;;4.80;99.90;;;;;;4963861;28;20514;-68
2022/01/17 02:59:50;;;;;;;0.00;0.00;;;5.20;99.90;;;;;;4980077;28;20042;-72
2022/01/17 03:02:16;;;;;;;0.00;0.00;;;4.90;99.90;;;;;;4980644;28;20112;-72
2022/01/17 03:04:42;;;;;;;0.00;0.00;;;4.80;99.90;;;;;;4978776;28;20046;-71
2022/01/17 03:07:07;;;;;;;0.00;0.00;;;4.80;99.90;;;;;;4980738;28;20129;-72
2022/01/17 03:09:42;;;;;;;0.00;0.00;;;4.80;99.90;;;;;;4983264;28;20401;-71
2022/01/17 03:12:08;;;;;;;;;;;6.20;99.90;;;;;;4984410;28;20125;-72
2022/01/17 03:14:34;;;;;;;0.00;0.00;;;4.80;99.90;;;;;;4983645;28;20001;-71
2022/01/17 03:17:00;;;;;;;0.00;0.00;;;4.80;99.90;;;;;;4983602;28;20046;-72
2022/01/17 03:19:25;;;;;;;0.00;0.00;;;4.80;99.90;;;;;;4983965;28;20563;-72
2022/01/17 03:21:51;;;;;;;0.00;0.00;;;4.80;99.90;;;;;;4982707;28;20112;-72
2022/01/17 03:24:16;;;;;;;0.00;0.00;;;4.80;99.90;;;;;;4983376;28;20034;-71
2022/01/17 03:26:42;;;;;;;3.50;1.65;;;5.20;99.90;;;;;;4983357;28;20097;-71
2022/01/17 03:29:08;;;;;;;0.00;0.00;;;4.90;99.90;;;;;;4994827;28;20105;-72
2022/01/17 03:31:34;;;;;;;0.00;0.00;;;4.90;99.90;;;;;;4983245;28;20076;-71
2022/01/17 03:33:59;;;;;;;0.00;0.00;;;5.00;99.90;;;;;;4965794;28;20042;-71
2022/01/17 03:36:25;;;;;;;0.00;0.00;;;5.00;99.90;;;;;;4983332;28;20061;-72
2022/01/17 03:38:51;;;;;;;0.00;0.00;;;5.00;99.90;;;;;;4982685;28;20074;-71
2022/01/17 03:41:17;;;;;;;0.00;0.00;;;5.00;99.90;;;;;;4982616;28;20493;-71
2022/01/17 03:43:42;;;;;;;0.00;0.00;;;5.00;99.90;;;;;;4983351;28;20046;-71
2022/01/17 03:46:08;;;;;;;0.00;0.00;;;5.00;99.90;;;;;;4983634;28;20549;-71
2022/01/17 03:48:34;;;;;;;0.00;0.00;;;5.00;99.90;;;;;;4983523;28;20129;-71
2022/01/17 03:51:02;;;;;;;0.00;0.00;;;5.00;99.90;;;;;;4982588;28;20511;-72
2022/01/17 03:53:28;;;;;;;0.00;0.00;;;6.50;99.90;;;;;;4982289;28;20050;-71
2022/01/17 03:55:55;;;;;;;0.00;0.00;;;5.10;99.90;;;;;;4983340;28;20054;-71
2022/01/17 03:58:21;;;;;;;0.00;0.00;;;5.10;99.90;;;;;;4982264;28;20097;-72
2022/01/17 04:00:48;;;;;;;0.00;0.00;;;5.10;99.90;;;;;;4982965;28;20042;-72
2022/01/17 04:03:14;;;;;;;0.00;0.00;;;5.10;99.90;;;;;;4982871;28;20096;-71
2022/01/17 04:05:40;;;;;;;0.00;0.00;;;5.10;99.90;;;;;;4983486;28;20457;-71
2022/01/17 04:08:06;;;;;;;0.00;0.00;;;5.10;99.90;;;;;;4982535;28;20038;-70
2022/01/17 04:10:33;;;;;;;0.00;0.00;;;5.10;99.90;;;;;;4982206;28;20050;-72
2022/01/17 04:13:03;;;;;;;0.00;0.00;;;5.10;99.90;;;;;;4965753;28;20111;-71
2022/01/17 04:15:30;;;;;;;0.00;0.00;;;5.10;99.90;;;;;;4982446;28;20088;-71
2022/01/17 04:17:57;;;;;;;0.00;0.00;;;5.00;99.90;;;;;;4982639;28;20058;-72
2022/01/17 04:20:27;;;;;;;0.00;0.00;;;5.00;99.90;;;;;;4981557;28;20054;-72
2022/01/17 04:22:58;;;;;;;0.00;0.00;;;5.00;99.90;;;;;;4982657;28;20092;-71
2022/01/17 04:25:26;;;;;;;0.00;0.00;;;5.00;99.90;;;;;;4981444;28;20142;-72
2022/01/17 04:27:52;;;;;;;0.00;0.00;;;5.00;99.90;;;;;;4984570;28;20061;-72
2022/01/17 04:30:19;;;;;;;0.00;0.00;;;5.10;99.90;;;;;;4991206;28;20374;-72
2022/01/17 04:32:46;;;;;;;0.00;0.00;;;6.50;99.90;;;;;;4981739;28;20054;-72
2022/01/17 04:35:14;;;;;;;0.00;0.00;;;5.00;99.90;;;;;;4982392;28;20042;-71
2022/01/17 04:37:40;;;;;;;0.00;0.00;;;5.00;99.90;;;;;;4982813;28;20057;-68
2022/01/17 04:40:07;;;;;;;0.00;0.00;;;5.10;99.90;;;;;;4982042;28;20786;-72
2022/01/17 04:42:33;;;;;;;0.00;0.00;;;5.10;99.90;;;;;;4981970;28;20045;-70
2022/01/17 04:45:08;;;;;;;0.00;0.00;;;5.10;99.90;;;;;;4981881;28;20050;-71
2022/01/17 04:47:36;;;;;;;0.00;0.00;;;5.10;99.90;;;;;;4982339;28;20458;-71
2022/01/17 04:50:04;;;;;;;0.00;0.00;;;5.20;99.90;;;;;;4981170;28;20443;-72
2022/01/17 04:52:30;;;;;;;0.00;0.00;;;5.10;99.90;;;;;;4982125;28;20655;-71
2022/01/17 04:55:00;;;;;;;0.00;0.00;;;5.10;99.90;;;;;;4963511;28;20509;-72
2022/01/17 04:57:26;;;;;;;0.00;0.00;;;5.20;99.90;;;;;;4981961;28;20092;-72
2022/01/17 04:59:51;;;;;;;0.00;0.00;;;5.10;99.90;;;;;;4981212;28;20125;-71
2022/01/17 05:02:17;;;;;;;0.00;0.00;;;5.20;99.90;;;;;;4981992;28;20050;-72
2022/01/17 05:04:45;;;;;;;0.00;0.00;;;5.20;99.90;;;;;;4963744;28;20062;-72
2022/01/17 05:07:17;;;;;;;0.00;0.00;;;5.20;99.90;;;;;;4981451;28;20043;-64
2022/01/17 05:09:44;;;;;;;0.00;0.00;;;5.40;99.90;;;;;;4980657;28;20050;-71
2022/01/17 05:12:10;;;;;;;0.00;0.00;;;5.30;99.90;;;;;;4982383;28;20043;-72
2022/01/17 05:14:40;;;;;;;0.00;0.00;;;5.30;99.90;;;;;;4981767;28;20086;-71
2022/01/17 05:17:23;;;;;;;0.00;0.00;;;5.50;99.90;;;;;;4981984;28;20401;-72
2022/01/17 05:19:49;;;;;;;0.00;0.00;;;5.30;99.90;;;;;;4963670;28;20133;-71
2022/01/17 05:22:18;;;;;;;0.00;0.00;;;5.40;99.90;;;;;;4980903;28;20038;-72
2022/01/17 05:24:45;;;;;;;0.00;0.00;;;5.40;99.90;;;;;;4980656;28;20145;-72
2022/01/17 05:27:12;;;;;;;0.00;0.00;;;5.40;99.90;;;;;;4982689;28;20046;-65
2022/01/17 05:29:38;;;;;;;0.00;0.00;;;5.50;99.90;;;;;;4991724;28;20039;-71
2022/01/17 05:32:04;;;;;;;0.00;0.00;;;5.50;99.90;;;;;;4980171;28;20058;-72
2022/01/17 05:34:30;;;;;;;0.00;0.00;;;5.50;99.90;;;;;;4981193;28;20121;-72
2022/01/17 05:36:56;;;;;;;0.00;0.00;;;6.70;99.90;;;;;;4980697;28;20541;-72
2022/01/17 05:39:21;;;;;;;0.00;0.00;;;5.60;99.90;;;;;;4980979;28;20046;-72
2022/01/17 05:41:47;;;;;;;0.00;0.00;;;6.20;99.90;;;;;;4980274;28;20477;-71
2022/01/17 05:44:13;;;;;;;0.00;0.00;;;5.70;99.90;;;;;;4981004;28;20050;-72
2022/01/17 05:46:38;;;;;;;0.00;0.00;;;5.60;99.90;;;;;;4981628;28;20038;-72
2022/01/17 05:49:04;;;;;;;0.00;0.00;;;5.70;99.90;;;;;;4980677;28;20073;-73
2022/01/17 05:51:30;;;;;;;0.00;0.00;;;6.00;99.90;;;;;;4980727;28;20176;-72
2022/01/17 05:53:55;;;;;;;0.00;0.00;;;5.80;99.90;;;;;;4980441;28;20077;-71
2022/01/17 05:56:21;;;;;;;0.00;0.00;;;6.90;99.90;;;;;;4981081;28;20073;-71
2022/01/17 05:58:46;;;;;;;0.00;0.00;;;5.70;99.90;;;;;;4980506;28;20060;-72
2022/01/17 06:01:14;;;;;;;0.00;0.00;;;5.70;99.90;;;;;;4980456;28;20046;-72
2022/01/17 06:03:40;;;;;;;0.00;0.00;;;5.80;99.90;;;;;;4981037;28;20058;-71
2022/01/17 06:06:06;;;;;;;0.00;0.00;;;5.80;99.90;;;;;;4981364;28;20058;-72
2022/01/17 06:08:33;;;;;;;0.00;0.00;;;5.70;99.90;;;;;;4961889;28;20046;-72
2022/01/17 06:10:59;;;;;;;0.00;0.00;;;5.80;99.90;;;;;;4980719;28;20106;-72
2022/01/17 06:13:24;;;;;;;0.00;0.00;;;5.80;99.90;;;;;;4980586;28;20047;-72
2022/01/17 06:15:50;;;;;;;0.20;0.20;;;5.80;99.90;;;;;;4980388;28;20438;-72
2022/01/17 06:18:16;;;;;;;0.00;0.00;;;5.80;99.90;;;;;;4962678;28;20050;-72
2022/01/17 06:20:41;;;;;;;0.00;0.00;;;5.80;99.90;;;;;;4980388;28;20039;-72
2022/01/17 06:23:07;;;;;;;0.00;0.00;;;5.80;99.90;;;;;;4980090;28;20086;-71
2022/01/17 06:25:33;;;;;;;0.00;0.00;;;5.80;99.90;;;;;;4980845;28;20133;-71
2022/01/17 06:27:59;;;;;;;0.00;0.00;;;5.90;99.90;;;;;;4982692;28;20073;-72
2022/01/17 06:30:25;;;;;;;0.00;0.00;;;5.90;99.90;;;;;;4988680;28;20042;-72
2022/01/17 06:32:50;;;;;;;0.00;0.00;;;5.90;99.90;;;;;;4980135;28;20131;-71
2022/01/17 06:35:16;;;;;;;0.00;0.00;;;5.90;99.90;;;;;;4980431;28;20164;-72
2022/01/17 06:37:44;;;;;;;0.00;0.00;;;5.90;99.90;;;;;;4979960;28;20081;-72
2022/01/17 06:40:10;;;;;;;0.00;0.00;;;6.00;99.90;;;;;;4979918;28;20081;-72
2022/01/17 06:42:36;;;;;;;0.00;0.00;;;6.00;99.90;;;;;;4981438;28;20034;-72
2022/01/17 06:45:04;;;;;;;0.00;0.00;;;6.00;99.90;;;;;;4983738;28;20140;-72
2022/01/17 06:47:30;;;;;;;0.00;0.00;;;5.80;99.90;;;;;;4984388;28;20555;-71
2022/01/17 06:49:56;;;;;;;0.00;0.00;;;6.00;99.90;;;;;;4984050;28;20057;-72
2022/01/17 06:52:23;;;;;;;0.00;0.00;;;6.00;99.90;;;;;;4984200;28;20038;-72
2022/01/17 06:54:50;;;;;;;0.00;0.00;;;6.00;99.90;;;;;;4965618;28;20513;-74
2022/01/17 06:57:16;;;;;;;0.00;0.00;;;6.00;99.90;;;;;;4983867;28;20045;-75
2022/01/17 06:59:41;;;;;;;0.00;0.00;;;5.90;99.90;;;;;;4966725;28;20497;-72
2022/01/17 07:02:08;;;;;;;0.00;0.00;;;6.80;99.90;;;;;;4984231;28;20053;-72
2022/01/17 07:04:34;;;;;;;0.00;0.00;;;6.00;99.90;;;;;;4983286;28;20449;-71
2022/01/17 07:07:00;;;;;;;0.00;0.00;;;6.00;99.90;;;;;;4983736;28;20053;-72
2022/01/17 07:09:28;;;;;;;0.00;0.00;;;6.00;99.90;;;;;;4983132;28;20042;-74
2022/01/17 07:11:58;;;;;;;0.00;0.00;;;6.10;99.90;;;;;;4966782;28;20058;-64
2022/01/17 07:14:25;;;;;;;0.00;0.00;;;6.10;99.90;;;;;;4986985;28;20412;-73
2022/01/17 07:16:51;;;;;;;0.40;0.40;;;6.10;99.90;;;;;;5000725;28;20096;-74
2022/01/17 07:19:17;;;;;;;0.00;0.00;;;6.10;99.90;;;;;;4985592;28;20505;-73
2022/01/17 07:21:43;;;;;;;0.00;0.00;;;6.10;99.90;;;;;;5001904;28;20498;-72
2022/01/17 07:24:09;;;;;;;0.00;0.00;;;6.10;99.90;;;;;;5002901;28;20895;-71
2022/01/17 07:26:34;;;;;;;0.00;0.00;;;6.10;99.90;;;;;;4985863;28;20520;-72
2022/01/17 07:29:02;;;;;;;0.00;0.00;;;6.10;99.90;;;;;;4996771;28;20304;-73
2022/01/17 07:31:27;;;;;;;0.00;0.00;;;6.10;99.90;;;;;;4965122;28;20053;-72
2022/01/17 07:33:53;;;;;;;0.00;0.00;;;6.10;99.90;;;;;;4983476;28;20039;-71
2022/01/17 07:36:20;;;;;;;0.00;0.00;;;6.10;99.90;;;;;;4982336;28;20065;-72
2022/01/17 07:38:47;;;;;;;0.00;0.00;;;6.20;99.90;;;;;;4982985;28;20388;-72
2022/01/17 07:41:13;;;;;;;0.00;0.00;;;6.10;99.90;;;;;;4982558;28;20050;-72
2022/01/17 07:43:38;;;;;;;0.00;0.00;;;6.20;99.90;;;;;;4983510;28;20121;-71
2022/01/17 07:46:18;;;;;;;0.00;0.00;;;6.20;99.90;;;;;;4982491;28;20038;-72
2022/01/17 07:51:11;;;;;;;0.00;0.00;;;7.50;99.90;;;;;;4983213;28;20057;-71
2022/01/17 07:53:37;;;;;;;0.00;0.00;;;6.30;99.90;;;;;;4983728;28;20772;-72
2022/01/17 07:56:03;;;;;;;0.00;0.00;;;7.50;99.90;;;;;;4982569;28;20049;-72
2022/01/17 07:58:28;;;;;;;0.00;0.00;;;6.30;99.90;;;;;;4982427;28;20046;-71
2022/01/17 08:00:54;;;;;;;0.00;0.00;;;6.40;99.90;;;;;;4982847;28;20054;-71
2022/01/17 08:03:20;;;;;;;0.00;0.00;;;6.40;99.90;;;;;;4983072;28;20497;-69
2022/01/17 08:05:45;;;;;;;0.00;0.00;;;6.40;99.90;;;;;;4982453;28;20085;-71
2022/01/17 08:08:11;;;;;;;0.00;0.00;;;6.40;99.90;;;;;;4980547;28;20112;-70
2022/01/17 08:10:38;;;;;;;0.08;0.08;;;6.90;99.90;;;;;;4983097;28;20133;-72
2022/01/17 08:13:04;;;;;;;0.00;0.00;;;6.60;99.90;;;;;;4982476;28;20515;-72
2022/01/17 08:15:31;;;;;;;0.00;0.00;;;6.50;99.90;;;;;;4982172;28;20042;-72
2022/01/17 08:17:57;;;;;;;0.00;0.00;;;6.60;99.90;;;;;;5000592;28;20046;-72
2022/01/17 08:20:23;;;;;;;0.00;0.00;;;6.60;99.90;;;;;;5002770;28;20056;-72
2022/01/17 08:22:49;;;;;;;0.00;0.00;;;7.00;99.90;;;;;;5001225;28;20125;-72
2022/01/17 08:25:15;;;;;;;0.00;0.00;;;6.60;99.90;;;;;;5001641;28;20069;-72
2022/01/17 08:27:41;;;;;;;0.00;0.00;;;6.70;99.90;;;;;;4992585;28;20053;-71
2022/01/17 08:30:08;;;;;;;0.00;0.00;;;7.10;99.90;;;;;;4991782;28;20485;-71
2022/01/17 08:32:33;;;;;;;0.00;0.00;;;6.70;99.90;;;;;;4998875;28;20172;-72
2022/01/17 08:34:59;;;;;;;0.00;0.00;;;6.70;99.90;;;;;;5001086;28;20548;-73
2022/01/17 08:37:26;;;;;;;0.00;0.00;;;6.70;99.90;;;;;;5001735;28;20045;-72
2022/01/17 08:39:53;;;;;;;0.10;0.10;;;6.80;99.90;;;;;;5001149;28;20092;-72
2022/01/17 08:42:19;;;;;;;0.00;0.00;;;6.80;99.90;;;;;;5001603;28;20080;-72
2022/01/17 08:44:49;;;;;;;0.00;0.00;;;7.30;99.90;;;;;;5000924;28;20137;-72
2022/01/17 08:47:16;;;;;;;0.00;0.00;;;6.80;99.90;;;;;;5001524;28;20046;-70
2022/01/17 08:49:42;;;;;;;0.00;0.00;;;6.80;99.90;;;;;;5001110;28;20084;-70
2022/01/17 08:52:09;;;;;;;0.00;0.00;;;6.80;99.90;;;;;;5001297;28;20053;-68
2022/01/17 08:54:35;;;;;;;0.00;0.00;;;6.90;99.90;;;;;;5000907;28;20044;-75
2022/01/17 08:57:01;;;;;;;0.00;0.00;;;6.90;99.90;;;;;;5001565;28;20041;-71
2022/01/17 08:59:30;;;;;;;0.00;0.00;;;6.90;99.90;;;;;;5001428;28;20834;-73
2022/01/17 09:01:56;;;;;;;0.00;0.00;;;7.00;99.90;;;;;;5000566;28;20057;-73
2022/01/17 09:04:21;;;;;;;0.00;0.00;;;7.00;99.90;;;;;;4999392;28;20563;-72
2022/01/17 09:06:47;;;;;;;0.00;0.00;;;7.00;99.90;;;;;;4983021;28;20041;-72
2022/01/17 09:09:13;;;;;;;0.00;0.00;;;7.30;99.90;;;;;;5000600;28;20049;-73
2022/01/17 09:11:38;;;;;;;0.00;0.00;;;7.10;99.90;;;;;;5000876;28;20046;-73
2022/01/17 09:14:04;;;;;;;0.00;0.00;;;7.20;99.90;;;;;;5000992;28;20042;-73
2022/01/17 09:16:30;;;;;;;0.00;0.00;;;7.20;99.90;;;;;;5001378;28;20092;-73
2022/01/17 09:18:56;;;;;;;0.00;0.00;;;7.20;99.90;;;;;;5001137;28;20085;-72
2022/01/17 09:21:22;;;;;;;0.00;0.00;;;7.30;99.90;;;;;;5000476;28;20038;-73
2022/01/17 09:23:49;;;;;;;0.00;0.00;;;7.30;99.90;;;;;;5000455;28;20042;-71
2022/01/17 09:26:15;;;;;;;0.00;0.00;;;7.60;99.90;;;;;;5001560;28;20117;-72
2022/01/17 09:28:42;;;;;;;0.00;0.00;;;7.70;99.90;;;;;;4994730;28;20548;-72
2022/01/17 09:31:08;;;;;;;0.00;0.00;;;7.50;99.90;;;;;;5000588;28;20123;-72
2022/01/17 09:33:34;;;;;;;0.00;0.00;;;7.60;99.90;;;;;;5000772;28;20133;-72
2022/01/17 09:36:00;;;;;;;0.00;0.00;;;7.60;99.90;;;;;;4982891;28;20037;-72
2022/01/17 09:38:25;;;;;;;0.00;0.00;;;7.60;99.90;;;;;;5000033;28;20175;-73
2022/01/17 09:40:51;;;;;;;0.00;0.00;;;7.60;99.90;;;;;;5000517;28;20041;-73
2022/01/17 09:43:17;;;;;;;0.00;0.00;;;8.40;99.90;;;;;;5000814;28;20167;-73
2022/01/17 09:45:43;;;;;;;8.38;0.88;;;7.70;99.90;;;;;;5000737;28;20050;-73
2022/01/17 09:48:14;;;;;;;0.00;0.00;;;7.70;99.90;;;;;;5000790;28;20763;-73
2022/01/17 09:50:56;;;;;;;0.00;0.00;;;7.70;99.90;;;;;;4983305;28;20069;-73
2022/01/17 09:53:22;;;;;;;0.00;0.00;;;7.70;99.90;;;;;;5000429;28;20511;-72
2022/01/17 09:55:48;;;;;;;0.00;0.00;;;7.70;99.90;;;;;;4995962;28;20129;-74
2022/01/17 09:58:14;;;;;;;0.00;0.00;;;8.00;99.90;;;;;;4999470;28;20056;-76
2022/01/17 10:00:43;;;;;;;0.00;0.00;;;7.90;99.90;;;;;;5000925;28;20050;-72
2022/01/17 10:03:12;;;;;;;0.00;0.00;;;8.30;99.90;;;;;;5000347;28;20053;-70
2022/01/17 10:05:39;;;;;;;0.00;0.00;;;7.90;99.90;;;;;;4999661;28;20560;-71
2022/01/17 10:08:06;;;;;;;0.00;0.00;;;7.90;99.90;;;;;;4999579;28;20049;-72
2022/01/17 10:10:50;;;;;;;0.00;0.00;;;8.40;99.90;;;;;;5000429;28;20053;-71
2022/01/17 10:13:24;;;;;;;0.00;0.00;;;7.90;99.90;;;;;;4999187;28;20046;-73
2022/01/17 10:16:03;;;;;;;0.10;0.10;;;8.00;99.90;;;;;;4999785;28;20370;-73
2022/01/17 10:19:03;;;;;;;0.70;0.15;;;8.00;99.90;;;;;;4998910;28;20071;-73
2022/01/17 10:21:36;;;;;;;0.00;0.00;;;8.20;99.90;;;;;;4977539;28;20408;-71
2022/01/17 10:37:17;;;;;;;0.00;0.00;;;8.30;99.90;;;;;;4998919;28;20046;-74
2022/01/17 10:40:03;;;;;;;0.00;0.00;;;8.40;99.90;;;;;;5000146;28;20060;-72
2022/01/17 10:42:42;;;;;;;0.00;0.00;;;8.30;99.90;;;;;;4966307;28;20064;-72
2022/01/17 10:45:10;;;;;;;0.00;0.00;;;8.30;99.90;;;;;;5000568;28;20103;-73
2022/01/17 10:47:39;;;;;;;0.00;0.00;;;8.30;99.90;;;;;;5000361;28;20580;-72
2022/01/17 10:50:12;;;;;;;0.00;0.00;;;8.20;99.90;;;;;;5000094;28;20045;-73
2022/01/17 10:52:59;;;;;;;0.00;0.00;;;8.30;99.90;;;;;;5000070;28;20457;-73
2022/01/17 10:55:30;;;;;;;0.00;0.00;;;8.20;99.90;;;;;;5002012;28;20488;-72
2022/01/17 10:58:03;;;;;;;0.00;0.00;;;8.20;99.90;;;;;;5015128;28;20048;-73
2022/01/17 11:00:35;;;;;;;0.00;0.00;;;8.20;99.90;;;;;;5020120;28;20042;-72
2022/01/17 11:03:04;;;;;;;0.00;0.00;;;8.20;99.90;;;;;;5020166;28;20530;-72
2022/01/17 11:05:32;;;;;;;0.00;0.00;;;8.20;99.90;;;;;;5019787;28;20124;-72
2022/01/17 11:08:01;;;;;;;0.00;0.00;;;8.60;99.90;;;;;;5018314;28;20049;-72
2022/01/17 11:10:32;;;;;;;0.00;0.00;;;8.30;99.90;;;;;;5018576;28;20042;-73
2022/01/17 11:13:02;;;;;;;0.00;0.00;;;8.40;99.90;;;;;;5001493;28;20068;-72
2022/01/17 11:15:32;;;;;;;0.00;0.00;;;8.40;99.90;;;;;;5001835;28;20080;-73
2022/01/17 11:18:03;;;;;;;0.00;0.00;;;8.40;99.90;;;;;;5018709;28;20049;-73
2022/01/17 11:20:29;;;;;;;0.00;0.00;;;8.40;99.90;;;;;;5019596;28;20096;-73
2022/01/17 11:22:58;;;;;;;0.00;0.00;;;8.90;99.90;;;;;;5018836;28;20045;-73
2022/01/17 11:25:27;;;;;;;0.00;0.00;;;8.30;99.90;;;;;;5018653;28;20677;-73
2022/01/17 11:27:53;;;;;;;0.00;0.00;;;8.30;99.90;;;;;;5004471;28;20053;-73
2022/01/17 11:30:19;;;;;;;0.00;0.00;;;8.30;99.90;;;;;;4982100;28;20050;-72
2022/01/17 11:32:50;;;;;;;0.00;0.00;;;8.20;99.90;;;;;;4983611;28;20386;-73
2022/01/17 11:35:17;;;;;;;0.00;0.00;;;8.50;99.90;;;;;;4983172;28;20502;-74
2022/01/17 11:37:56;;;;;;;0.00;0.00;;;8.20;99.90;;;;;;4965120;28;20800;-74
2022/01/17 11:40:27;;;;;;;0.00;0.00;;;8.40;99.90;;;;;;4983677;28;20444;-67
2022/01/17 11:42:54;;;;;;;0.00;0.00;;;8.20;99.90;;;;;;4983451;28;20413;-73
2022/01/17 11:45:22;;;;;;;0.00;0.00;;;8.20;99.90;;;;;;4983307;28;20108;-74
2022/01/17 11:48:00;;;;;;;0.00;0.00;;;8.40;99.90;;;;;;4987522;28;20037;-77
2022/01/17 11:50:32;;;;;;;0.00;0.00;;;8.40;99.90;;;;;;5000569;28;20061;-73
2022/01/17 11:53:19;;;;;;;0.00;0.00;;;8.40;99.90;;;;;;4998953;28;20105;-73
2022/01/17 11:55:46;;;;;;;0.00;0.00;;;8.40;99.90;;;;;;4981815;28;20720;-72
2022/01/17 11:58:30;;;;;;;0.00;0.00;;;8.50;99.90;;;;;;4983654;28;20489;-72
2022/01/17 12:01:02;;;;;;;0.00;0.00;;;8.90;99.90;;;;;;4983733;28;20046;-72
2022/01/17 12:03:45;;;;;;;0.00;0.00;;;9.00;99.90;;;;;;5000986;28;20057;-73
2022/01/17 12:06:34;;;;;;;0.00;0.00;;;8.90;99.90;;;;;;5002938;28;20053;-72
2022/01/17 12:09:25;;;;;;;0.38;0.38;;;8.80;99.90;;;;;;5001039;28;20089;-72
2022/01/17 12:12:14;;;;;;;0.00;0.00;;;8.60;99.90;;;;;;5001616;28;20429;-72
2022/01/17 12:14:44;;;;;;;0.00;0.00;;;8.60;99.90;;;;;;4985077;28;20046;-72
2022/01/17 12:17:25;;;;;;;0.00;0.00;;;8.70;99.90;;;;;;4995768;28;20057;-72
2022/01/17 12:20:03;;;;;;;0.00;0.00;;;8.80;99.90;;;;;;4983121;28;20046;-72
2022/01/17 12:22:56;;;;;;;0.00;0.00;;;9.10;99.90;;;;;;4985728;28;20085;-73
2022/01/17 12:25:26;;;;;;;0.00;0.00;;;9.40;99.90;;;;;;4981791;28;20054;-75
2022/01/17 12:28:16;;;;;;;0.00;0.00;;;9.40;99.90;;;;;;4991252;28;20086;-69
2022/01/17 12:30:51;;;;;;;0.00;0.00;;;9.70;99.90;;;;;;4982977;28;20069;-72
2022/01/17 12:33:40;;;;;;;0.20;0.20;;;9.40;99.90;;;;;;4965036;28;20409;-71
2022/01/17 12:36:28;;;;;;;0.00;0.00;;;8.90;99.90;;;;;;5001389;28;20049;-74
2022/01/17 12:39:12;;;;;;;0.00;0.00;;;8.80;99.90;;;;;;4983638;28;20053;-72
2022/01/17 12:41:44;;;;;;;0.00;0.00;;;8.70;99.90;;;;;;5001117;28;20037;-74
2022/01/17 12:44:13;;;;;;;0.00;0.00;;;8.90;99.90;;;;;;5002649;28;20042;-72
2022/01/17 12:46:43;;;;;;;0.00;0.00;;;8.70;99.90;;;;;;5002317;28;20531;-72
2022/01/17 12:49:10;;;;;;;0.00;0.00;;;8.60;99.90;;;;;;5002185;28;20113;-72
2022/01/17 12:51:40;;;;;;;0.52;0.30;;;8.70;99.90;;;;;;5001144;28;20037;-71
2022/01/17 12:54:11;;;;;;;0.00;0.00;;;8.60;99.90;;;;;;5001259;28;20048;-72
2022/01/17 12:56:41;;;;;;;0.00;0.00;;;8.50;99.90;;;;;;5002122;28;20065;-72
2022/01/17 12:59:09;;;;;;;0.00;0.00;;;8.50;99.90;;;;;;5001265;28;20045;-72
2022/01/17 13:01:39;;;;;;;0.00;0.00;;;8.50;99.90;;;;;;5001778;28;20124;-70
2022/01/17 13:04:06;;;;;;;0.00;0.00;;;8.50;99.90;;;;;;5001144;28;20479;-72
2022/01/17 13:06:32;;;;;;;0.00;0.00;;;8.50;99.90;;;;;;5000411;28;20096;-72
2022/01/17 13:09:00;;;;;;;0.00;0.00;;;8.40;99.90;;;;;;5000931;28;20045;-72
2022/01/17 13:11:27;;;;;;;0.00;0.00;;;8.40;99.90;;;;;;5001690;28;20056;-72
2022/01/17 13:13:58;;;;;;;0.00;0.00;;;8.40;99.90;;;;;;5000886;28;20394;-72
2022/01/17 13:16:25;;;;;;;0.00;0.00;;;8.40;99.90;;;;;;5000811;28;20046;-72
2022/01/17 13:18:53;;;;;;;0.00;0.00;;;8.50;99.90;;;;;;5000958;28;20046;-72
2022/01/17 13:21:20;;;;;;;0.00;0.00;;;8.50;99.90;;;;;;4983802;28;20081;-71
2022/01/17 13:23:52;;;;;;;0.00;0.00;;;8.50;99.90;;;;;;4981855;28;20085;-72
2022/01/17 13:26:39;;;;;;;0.00;0.00;;;8.50;99.90;;;;;;5001276;28;20137;-72
2022/01/17 13:29:07;;;;;;;0.00;0.00;;;8.60;99.90;;;;;;4993399;28;20064;-72
2022/01/17 13:31:33;;;;;;;0.00;0.00;;;8.60;99.90;;;;;;4981022;28;20042;-71